createdAt,value
2022-12-19T00:04:20.358Z,102201.00
2022-12-19T00:09:23.120Z,102200.16
2022-12-19T00:14:25.912Z,102203.69
2022-12-19T00:19:28.687Z,102204.13
2022-12-19T00:24:31.325Z,102205.47
2022-12-19T00:29:34.187Z,102197.84
2022-12-19T00:34:38.439Z,102208.56
2022-12-19T00:39:41.070Z,102196.28
2022-12-19T00:44:43.701Z,102192.22
2022-12-19T00:49:46.362Z,102173.25
2022-12-19T00:54:50.893Z,102165.84
2022-12-19T00:59:55.246Z,102174.59
2022-12-19T01:04:58.008Z,102166.97
2022-12-19T01:10:00.833Z,102174.53
2022-12-19T01:15:06.109Z,102137.19
2022-12-19T01:20:11.353Z,102170.31
2022-12-19T01:25:14.692Z,102174.78
2022-12-19T01:30:17.491Z,102166.03
2022-12-19T01:35:22.549Z,102156.69
2022-12-19T01:40:25.189Z,102166.94
2022-12-19T01:45:34.896Z,102146.13
2022-12-19T01:51:02.778Z,102156.44
2022-12-19T01:56:10.493Z,102155.28
2022-12-19T02:01:14.858Z,102141.22
2022-12-19T02:06:17.921Z,102150.78
2022-12-19T02:11:20.644Z,102149.91
2022-12-19T02:16:47.591Z,102153.03
2022-12-19T02:21:57.864Z,102146.81
2022-12-19T02:27:24.655Z,102097.16
2022-12-19T02:32:36.245Z,102149.50
2022-12-19T02:38:15.805Z,102154.16
2022-12-19T02:43:19.380Z,102158.63
2022-12-19T02:48:22.803Z,102160.19
2022-12-19T02:53:25.444Z,102158.63
2022-12-19T02:58:59.370Z,102163.31
2022-12-19T03:04:17.890Z,102166.38
2022-12-19T03:09:38.752Z,102165.97
2022-12-19T03:14:41.910Z,102165.50
2022-12-19T03:19:46.265Z,102161.28
2022-12-19T03:24:48.937Z,102140.72
2022-12-19T03:30:01.126Z,102162.91
2022-12-19T03:35:13.934Z,102166.97
2022-12-19T03:40:19.997Z,102149.16
2022-12-19T03:45:30.073Z,102146.97
2022-12-19T03:50:46.187Z,102133.56
2022-12-19T03:55:56.156Z,102132.28
2022-12-19T04:00:58.946Z,102121.34
2022-12-19T04:06:02.583Z,102127.41
2022-12-19T04:11:14.506Z,102128.28
2022-12-19T04:16:56.807Z,102114.91
2022-12-19T04:22:05.173Z,102086.56
2022-12-19T04:27:08.848Z,102100.00
2022-12-19T04:32:12.071Z,102086.16
2022-12-19T04:37:14.780Z,102103.16
2022-12-19T04:42:17.594Z,102079.28
2022-12-19T04:47:20.490Z,102079.72
2022-12-19T04:52:23.152Z,102045.28
2022-12-19T04:57:30.620Z,102053.81
2022-12-19T05:02:33.471Z,102050.66
2022-12-19T05:07:36.535Z,102045.31
2022-12-19T05:12:39.202Z,102043.09
2022-12-19T05:17:41.900Z,102021.66
2022-12-19T05:22:44.639Z,102033.22
2022-12-19T05:27:47.242Z,102025.41
2022-12-19T05:32:50.029Z,102031.91
2022-12-19T05:37:52.719Z,102039.06
2022-12-19T05:42:55.714Z,102049.31
2022-12-19T05:48:01.290Z,102042.19
2022-12-19T05:53:04.488Z,102027.00
2022-12-19T05:58:07.116Z,101999.75
2022-12-19T06:03:09.999Z,102022.09
2022-12-19T06:08:12.816Z,102014.94
2022-12-19T06:13:16.488Z,102010.47
2022-12-19T06:18:20.328Z,102006.00
2022-12-19T06:23:23.451Z,101995.72
2022-12-19T06:28:27.798Z,101964.91
2022-12-19T06:33:31.473Z,101978.06
2022-12-19T06:38:35.054Z,101969.16
2022-12-19T06:43:37.845Z,101966.69
2022-12-19T06:48:40.485Z,101963.78
2022-12-19T06:53:43.163Z,101960.00
2022-12-19T06:58:45.966Z,101961.56
2022-12-19T07:03:49.315Z,101962.66
2022-12-19T07:08:52.031Z,101950.16
2022-12-19T07:13:54.722Z,101953.69
2022-12-19T07:18:57.765Z,101953.28
2022-12-19T07:24:00.866Z,101939.19
2022-12-19T07:29:03.734Z,101917.09
2022-12-19T07:34:06.375Z,101917.31
2022-12-19T07:39:09.109Z,101906.34
2022-12-19T07:44:13.734Z,101902.75
2022-12-19T07:49:21.078Z,101904.56
2022-12-19T07:54:25.496Z,101884.91
2022-12-19T07:59:32.311Z,101888.47
2022-12-19T08:04:38.393Z,101866.34
2022-12-19T08:09:44.093Z,101870.34
2022-12-19T08:14:46.771Z,101861.63
2022-12-19T08:19:49.476Z,101870.78
2022-12-19T08:24:52.223Z,101863.66
2022-12-19T08:29:54.878Z,101852.69
2022-12-19T08:34:57.626Z,101834.78
2022-12-19T08:40:00.225Z,101822.69
2022-12-19T08:45:02.947Z,101810.16
2022-12-19T08:50:07.335Z,101799.03
2022-12-19T08:55:10.632Z,101787.41
2022-12-19T09:00:13.868Z,101786.28
2022-12-19T09:06:02.453Z,101765.75
2022-12-19T09:10:41.512Z,101692.72
2022-12-19T09:15:44.288Z,101732.28
2022-12-19T09:20:47.022Z,101750.69
2022-12-19T09:25:50.336Z,101732.84
2022-12-19T09:30:57.792Z,101702.50
2022-12-19T09:36:00.897Z,101704.03
2022-12-19T09:41:15.865Z,101714.28
2022-12-19T09:46:31.784Z,101699.13
2022-12-19T09:51:53.169Z,101706.91
2022-12-19T09:56:59.537Z,101690.53
2022-12-19T10:02:17.433Z,101692.53
2022-12-19T10:07:48.328Z,101681.44
2022-12-19T10:13:04.970Z,101680.63
2022-12-19T10:18:19.535Z,101668.34
2022-12-19T10:23:40.270Z,101658.94
2022-12-19T10:29:05.535Z,101650.41
2022-12-19T10:34:21.834Z,101635.16
2022-12-19T10:40:03.524Z,101629.06
2022-12-19T10:45:15.406Z,101606.00
2022-12-19T10:50:22.790Z,101597.88
2022-12-19T10:55:35.346Z,101569.16
2022-12-19T11:00:39.538Z,101549.94
2022-12-19T11:05:47.549Z,101540.69
2022-12-19T11:12:52.221Z,101527.25
2022-12-19T11:20:44.604Z,101524.91
2022-12-19T11:29:31.089Z,101520.53
2022-12-19T11:30:35.806Z,101512.78
2022-12-19T11:33:15.361Z,101499.69
2022-12-19T11:38:48.959Z,101490.28
2022-12-19T11:43:59.443Z,101456.78
2022-12-19T11:49:20.773Z,101441.75
2022-12-19T11:54:36.230Z,101424.44
2022-12-19T11:59:39.789Z,101406.19
2022-12-19T12:05:03.918Z,101399.50
2022-12-19T12:15:37.939Z,101362.56
2022-12-19T12:31:02.480Z,101342.44
2022-12-19T12:31:13.059Z,101327.28
2022-12-19T12:31:45.833Z,101333.81
2022-12-19T12:35:30.673Z,101310.56
2022-12-19T12:38:25.558Z,101284.16
2022-12-19T12:43:56.957Z,101266.69
2022-12-19T12:49:05.848Z,101259.44
2022-12-19T12:54:12.904Z,101246.63
2022-12-19T12:59:21.735Z,101239.59
2022-12-19T13:05:00.951Z,101231.13
2022-12-19T13:10:25.801Z,101218.94
2022-12-19T13:15:28.545Z,101214.69
2022-12-19T13:20:31.211Z,101190.84
2022-12-19T13:25:37.091Z,101162.06
2022-12-19T13:31:18.950Z,101133.78
2022-12-19T13:39:51.267Z,101130.13
2022-12-19T13:42:36.019Z,101121.03
2022-12-19T13:47:41.797Z,101099.63
2022-12-19T13:52:49.738Z,101102.97
2022-12-19T13:57:55.869Z,101108.28
2022-12-19T14:03:00.009Z,101103.34
2022-12-19T14:08:04.452Z,101128.94
2022-12-19T14:13:46.843Z,101101.91
2022-12-19T14:18:50.769Z,101097.34
2022-12-19T14:24:20.580Z,101090.66
2022-12-19T14:30:26.105Z,101089.28
2022-12-19T14:36:10.400Z,101068.16
2022-12-19T14:40:32.463Z,101057.94
2022-12-19T14:53:52.383Z,101025.09
2022-12-19T14:54:32.218Z,101021.41
2022-12-19T14:57:06.787Z,101001.31
2022-12-19T15:02:12.166Z,100993.59
2022-12-19T15:07:34.276Z,100999.91
2022-12-19T15:14:52.404Z,100978.78
2022-12-19T15:18:42.841Z,100962.25
2022-12-19T15:23:46.184Z,100959.78
2022-12-19T15:28:53.841Z,100946.09
2022-12-19T15:39:20.350Z,100934.50
2022-12-19T15:44:40.811Z,100913.00
2022-12-19T15:49:43.571Z,100908.44
2022-12-19T15:54:49.381Z,100908.09
2022-12-19T15:59:52.831Z,100891.72
2022-12-19T16:05:01.686Z,100888.72
2022-12-19T16:10:07.589Z,100875.84
2022-12-19T16:15:24.699Z,100857.56
2022-12-19T16:20:31.882Z,100844.34
2022-12-19T16:25:46.501Z,100850.66
2022-12-19T16:30:50.731Z,100843.09
2022-12-19T16:36:08.588Z,100832.31
2022-12-19T16:41:23.532Z,100839.38
2022-12-19T16:46:31.275Z,100838.50
2022-12-19T16:51:34.026Z,100834.09
2022-12-19T16:56:50.897Z,100829.19
2022-12-19T17:01:54.275Z,100812.97
2022-12-19T17:06:57.118Z,100793.53
2022-12-19T17:12:01.502Z,100767.97
2022-12-19T17:17:04.176Z,100770.44
2022-12-19T17:22:13.057Z,100737.81
2022-12-19T17:27:17.735Z,100719.81
2022-12-19T17:32:24.340Z,100704.28
2022-12-19T17:37:27.493Z,100702.50
2022-12-19T17:42:36.888Z,100707.91
2022-12-19T17:47:40.186Z,100690.88
2022-12-19T17:52:42.871Z,100695.63
2022-12-19T17:57:45.739Z,100682.75
2022-12-19T18:02:49.534Z,100680.91
2022-12-19T18:07:52.781Z,100669.94
2022-12-19T18:12:55.598Z,100659.19
2022-12-19T18:17:58.388Z,100649.13
2022-12-19T18:23:01.991Z,100640.44
2022-12-19T18:28:04.734Z,100629.88
2022-12-19T18:33:08.375Z,100642.53
2022-12-19T18:38:21.899Z,100646.59
2022-12-19T18:43:24.538Z,100633.16
2022-12-19T18:48:29.082Z,100628.41
2022-12-19T18:53:35.526Z,100624.69
2022-12-19T18:58:39.036Z,100613.03
2022-12-19T19:03:42.628Z,100621.47
2022-12-19T19:08:45.361Z,100620.06
2022-12-19T19:14:11.769Z,100623.56
2022-12-19T19:19:17.896Z,100609.06
2022-12-19T19:24:22.206Z,100592.50
2022-12-19T19:29:24.932Z,100597.44
2022-12-19T19:34:33.034Z,100583.00
2022-12-19T19:39:35.844Z,100579.75
2022-12-19T19:44:38.620Z,100584.84
2022-12-19T19:49:41.674Z,100572.66
2022-12-19T19:54:44.427Z,100570.94
2022-12-19T19:59:47.267Z,100566.84
2022-12-19T20:04:49.940Z,100565.44
2022-12-19T20:09:52.678Z,100546.91
2022-12-19T20:14:55.372Z,100565.59
2022-12-19T20:19:58.003Z,100553.63
2022-12-19T20:25:00.674Z,100516.19
2022-12-19T20:30:04.694Z,100549.66
2022-12-19T20:35:14.025Z,100531.09
2022-12-19T20:40:17.418Z,100526.16
2022-12-19T20:45:20.049Z,100525.91
2022-12-19T20:50:23.047Z,100523.06
2022-12-19T20:55:25.726Z,100512.78
2022-12-19T21:00:28.391Z,100499.19
2022-12-19T21:05:31.064Z,100510.63
2022-12-19T21:10:33.905Z,100498.66
2022-12-19T21:15:36.574Z,100501.63
2022-12-19T21:20:39.406Z,100507.75
2022-12-19T21:25:42.351Z,100491.88
2022-12-19T21:30:45.030Z,100483.75
2022-12-19T21:35:47.840Z,100487.34
2022-12-19T21:40:50.789Z,100475.84
2022-12-19T21:46:04.475Z,100485.53
2022-12-19T21:51:07.518Z,100493.97
2022-12-19T21:56:24.495Z,100493.25
2022-12-19T22:01:28.176Z,100499.06
2022-12-19T22:06:33.395Z,100486.69
2022-12-19T22:11:36.806Z,100473.06
2022-12-19T22:16:39.758Z,100479.69
2022-12-19T22:21:42.755Z,100427.66
2022-12-19T22:26:45.473Z,100469.31
2022-12-19T22:31:48.438Z,100485.91
2022-12-19T22:36:51.171Z,100485.69
2022-12-19T22:41:53.857Z,100484.47
2022-12-19T22:46:56.526Z,100497.88
2022-12-19T22:51:59.451Z,100501.41
2022-12-19T22:57:02.121Z,100479.34
2022-12-19T23:02:05.065Z,100476.25
2022-12-19T23:07:07.834Z,100471.47
2022-12-19T23:12:10.573Z,100473.22
2022-12-19T23:17:13.200Z,100466.53
2022-12-19T23:22:15.881Z,100462.44
2022-12-19T23:27:18.611Z,100449.03
2022-12-19T23:32:21.497Z,100449.34
2022-12-19T23:37:24.262Z,100449.69
2022-12-19T23:42:26.961Z,100444.41
2022-12-19T23:47:32.698Z,100456.06
2022-12-19T23:52:35.438Z,100424.59
2022-12-19T23:57:38.447Z,100412.00
